New Knoxville, Ohio
Current Conditions -  °F | °C
As of 1:14 AM on Thursday 23 Oct 2014 (Local Time) from KAXV Reporting Station
Haze Haze  
Wind Chill: 41°   Ceiling: 2700
Heat Index: 41°   Visibility: 5mi
Dew Point: 41°   Wind: 0mph
Humidity: 100%   Direction: NA
Pressure: 30.29"   Gusts: NA
Location:  40.49°N, 84.31°W
Report Text: KAXV 230514Z AUTO 00000KT 5SM BR OVC027 05/05 A3029 RMK AO2
Loading
Personal Weather Stations






























Interactive Weather Map
Tropical Storm Tracking
New forecast layout! Learn more

10-Day Weather Forecast

Advertisements
Track Severe Weather on mobile